sensor_id;sensor_type;location;lat;lon;timestamp;pressure;altitude;pressure_sealevel;temperature;humidity
35676;BME280;21790;42.668;23.298;2022-07-23T00:00:14;94961.31;;;28.74;35.30
35676;BME280;21790;42.668;23.298;2022-07-23T00:02:40;94964.19;;;28.58;35.76
35676;BME280;21790;42.668;23.298;2022-07-23T00:05:06;94968.31;;;28.73;35.28
35676;BME280;21790;42.668;23.298;2022-07-23T00:07:32;94971.59;;;28.54;35.40
35676;BME280;21790;42.668;23.298;2022-07-23T00:09:57;94967.09;;;28.43;35.64
35676;BME280;21790;42.668;23.298;2022-07-23T00:12:23;94970.09;;;28.53;36.11
35676;BME280;21790;42.668;23.298;2022-07-23T00:14:49;94969.56;;;28.39;36.01
35676;BME280;21790;42.668;23.298;2022-07-23T00:17:14;94970.16;;;28.30;36.21
35676;BME280;21790;42.668;23.298;2022-07-23T00:19:40;94978.19;;;28.64;35.67
35676;BME280;21790;42.668;23.298;2022-07-23T00:22:05;94978.56;;;28.60;35.56
35676;BME280;21790;42.668;23.298;2022-07-23T00:24:32;94975.72;;;28.68;35.72
35676;BME280;21790;42.668;23.298;2022-07-23T00:26:58;94987.31;;;28.62;36.05
35676;BME280;21790;42.668;23.298;2022-07-23T00:29:24;94977.25;;;28.61;35.88
35676;BME280;21790;42.668;23.298;2022-07-23T00:31:50;94984.06;;;28.66;36.00
35676;BME280;21790;42.668;23.298;2022-07-23T00:34:17;94985.38;;;28.73;36.07
35676;BME280;21790;42.668;23.298;2022-07-23T00:36:44;94982.44;;;28.40;36.32
35676;BME280;21790;42.668;23.298;2022-07-23T00:39:09;94976.56;;;28.38;36.48
35676;BME280;21790;42.668;23.298;2022-07-23T00:41:35;94983.06;;;28.23;36.14
35676;BME280;21790;42.668;23.298;2022-07-23T00:44:24;94970.13;;;28.38;36.17
35676;BME280;21790;42.668;23.298;2022-07-23T00:46:52;94972.28;;;28.22;36.36
35676;BME280;21790;42.668;23.298;2022-07-23T00:49:28;94977.16;;;28.37;36.51
35676;BME280;21790;42.668;23.298;2022-07-23T00:51:54;94973.25;;;28.09;36.42
35676;BME280;21790;42.668;23.298;2022-07-23T00:54:23;94976.44;;;28.21;36.13
35676;BME280;21790;42.668;23.298;2022-07-23T00:56:49;94980.63;;;28.12;36.07
35676;BME280;21790;42.668;23.298;2022-07-23T00:59:16;94979.50;;;27.93;36.41
35676;BME280;21790;42.668;23.298;2022-07-23T01:01:43;94968.16;;;27.93;36.47
35676;BME280;21790;42.668;23.298;2022-07-23T01:04:16;94972.31;;;27.92;36.79
35676;BME280;21790;42.668;23.298;2022-07-23T01:06:43;94973.06;;;27.92;36.59
35676;BME280;21790;42.668;23.298;2022-07-23T01:09:10;94972.50;;;27.86;36.58
35676;BME280;21790;42.668;23.298;2022-07-23T01:11:36;94986.88;;;27.96;36.42
35676;BME280;21790;42.668;23.298;2022-07-23T01:14:28;94979.13;;;27.88;36.56
35676;BME280;21790;42.668;23.298;2022-07-23T01:16:55;94976.47;;;27.91;36.43
35676;BME280;21790;42.668;23.298;2022-07-23T01:19:21;94976.31;;;27.81;36.76
35676;BME280;21790;42.668;23.298;2022-07-23T01:21:48;94965.50;;;27.72;36.41
35676;BME280;21790;42.668;23.298;2022-07-23T01:24:16;94961.75;;;27.69;36.17
35676;BME280;21790;42.668;23.298;2022-07-23T01:26:43;94968.53;;;27.81;36.05
35676;BME280;21790;42.668;23.298;2022-07-23T01:29:09;94969.88;;;27.58;36.32
35676;BME280;21790;42.668;23.298;2022-07-23T01:31:35;94969.50;;;27.61;36.61
35676;BME280;21790;42.668;23.298;2022-07-23T01:34:00;94964.00;;;27.63;36.56
35676;BME280;21790;42.668;23.298;2022-07-23T01:36:26;94962.88;;;27.74;36.26
35676;BME280;21790;42.668;23.298;2022-07-23T01:38:52;94968.53;;;27.51;36.57
35676;BME280;21790;42.668;23.298;2022-07-23T01:41:17;94964.00;;;27.56;36.64
35676;BME280;21790;42.668;23.298;2022-07-23T01:43:43;94961.91;;;27.56;36.64
35676;BME280;21790;42.668;23.298;2022-07-23T01:46:08;94968.16;;;27.62;36.56
35676;BME280;21790;42.668;23.298;2022-07-23T01:48:34;94960.22;;;27.68;36.82
35676;BME280;21790;42.668;23.298;2022-07-23T01:51:00;94962.50;;;27.62;36.79
35676;BME280;21790;42.668;23.298;2022-07-23T01:53:26;94967.03;;;27.50;37.38
35676;BME280;21790;42.668;23.298;2022-07-23T01:55:52;94964.00;;;27.48;37.39
35676;BME280;21790;42.668;23.298;2022-07-23T01:58:18;94964.75;;;27.56;37.21
35676;BME280;21790;42.668;23.298;2022-07-23T02:00:45;94965.53;;;27.64;37.45
35676;BME280;21790;42.668;23.298;2022-07-23T02:03:11;94965.91;;;27.68;37.51
35676;BME280;21790;42.668;23.298;2022-07-23T02:05:36;94963.41;;;27.49;37.68
35676;BME280;21790;42.668;23.298;2022-07-23T02:08:02;94968.19;;;27.55;37.76
35676;BME280;21790;42.668;23.298;2022-07-23T02:10:28;94969.28;;;27.67;37.13
35676;BME280;21790;42.668;23.298;2022-07-23T02:12:53;94966.84;;;27.63;37.50
35676;BME280;21790;42.668;23.298;2022-07-23T02:15:19;94960.75;;;27.44;37.66
35676;BME280;21790;42.668;23.298;2022-07-23T02:17:46;94962.28;;;27.45;37.68
35676;BME280;21790;42.668;23.298;2022-07-23T02:20:12;94961.53;;;27.37;37.44
35676;BME280;21790;42.668;23.298;2022-07-23T02:22:38;94965.66;;;27.28;37.94
35676;BME280;21790;42.668;23.298;2022-07-23T02:25:05;94958.69;;;27.22;37.93
35676;BME280;21790;42.668;23.298;2022-07-23T02:27:31;94960.75;;;27.21;38.06
35676;BME280;21790;42.668;23.298;2022-07-23T02:29:57;94962.25;;;27.07;38.08
35676;BME280;21790;42.668;23.298;2022-07-23T02:32:23;94969.41;;;27.00;38.13
35676;BME280;21790;42.668;23.298;2022-07-23T02:34:49;94969.19;;;26.91;37.77
35676;BME280;21790;42.668;23.298;2022-07-23T02:37:15;94964.66;;;26.95;37.90
35676;BME280;21790;42.668;23.298;2022-07-23T02:39:40;94966.00;;;26.94;38.40
35676;BME280;21790;42.668;23.298;2022-07-23T02:42:06;94971.91;;;27.19;37.71
35676;BME280;21790;42.668;23.298;2022-07-23T02:44:32;94976.63;;;27.17;37.78
35676;BME280;21790;42.668;23.298;2022-07-23T02:46:59;94978.50;;;27.06;38.06
35676;BME280;21790;42.668;23.298;2022-07-23T02:49:25;94980.03;;;27.23;37.51
35676;BME280;21790;42.668;23.298;2022-07-23T02:51:51;94977.00;;;27.05;37.91
35676;BME280;21790;42.668;23.298;2022-07-23T02:54:17;94974.06;;;26.75;38.09
35676;BME280;21790;42.668;23.298;2022-07-23T02:56:43;94981.13;;;26.89;38.38
35676;BME280;21790;42.668;23.298;2022-07-23T02:59:09;94986.88;;;26.69;38.39
35676;BME280;21790;42.668;23.298;2022-07-23T03:01:36;94979.13;;;26.69;38.48
35676;BME280;21790;42.668;23.298;2022-07-23T03:04:01;94986.53;;;26.72;38.48
35676;BME280;21790;42.668;23.298;2022-07-23T03:06:27;94993.03;;;26.88;38.27
35676;BME280;21790;42.668;23.298;2022-07-23T03:08:53;94984.84;;;26.84;38.44
35676;BME280;21790;42.668;23.298;2022-07-23T03:11:18;94990.84;;;26.73;38.53
35676;BME280;21790;42.668;23.298;2022-07-23T03:13:45;94997.50;;;26.76;38.38
35676;BME280;21790;42.668;23.298;2022-07-23T03:16:13;95003.94;;;26.76;38.44
35676;BME280;21790;42.668;23.298;2022-07-23T03:18:39;95005.41;;;26.70;38.70
35676;BME280;21790;42.668;23.298;2022-07-23T03:21:05;95006.88;;;26.63;38.82
35676;BME280;21790;42.668;23.298;2022-07-23T03:23:31;95010.75;;;26.81;38.60
35676;BME280;21790;42.668;23.298;2022-07-23T03:25:56;95005.63;;;26.79;38.55
35676;BME280;21790;42.668;23.298;2022-07-23T03:28:22;95009.63;;;26.84;38.33
35676;BME280;21790;42.668;23.298;2022-07-23T03:30:48;95005.81;;;26.81;38.44
35676;BME280;21790;42.668;23.298;2022-07-23T03:33:17;95005.31;;;26.90;38.75
35676;BME280;21790;42.668;23.298;2022-07-23T03:35:44;95005.81;;;26.81;38.62
35676;BME280;21790;42.668;23.298;2022-07-23T03:38:09;95017.53;;;26.78;38.82
35676;BME280;21790;42.668;23.298;2022-07-23T03:40:35;95020.56;;;26.80;38.94
35676;BME280;21790;42.668;23.298;2022-07-23T03:43:01;95018.50;;;26.80;38.96
35676;BME280;21790;42.668;23.298;2022-07-23T03:45:26;95016.78;;;26.77;39.10
35676;BME280;21790;42.668;23.298;2022-07-23T03:47:54;95019.84;;;26.87;39.31
35676;BME280;21790;42.668;23.298;2022-07-23T03:53:41;95021.00;;;26.91;39.05
35676;BME280;21790;42.668;23.298;2022-07-23T03:56:08;95017.63;;;27.00;38.55
35676;BME280;21790;42.668;23.298;2022-07-23T03:58:35;95013.88;;;27.05;38.54
35676;BME280;21790;42.668;23.298;2022-07-23T04:01:01;95023.31;;;27.08;38.25
35676;BME280;21790;42.668;23.298;2022-07-23T04:03:26;95020.63;;;26.95;38.68
35676;BME280;21790;42.668;23.298;2022-07-23T04:05:52;95017.44;;;27.06;38.10
35676;BME280;21790;42.668;23.298;2022-07-23T04:08:21;95014.06;;;27.08;38.87
35676;BME280;21790;42.668;23.298;2022-07-23T04:10:47;95016.00;;;27.20;38.23
35676;BME280;21790;42.668;23.298;2022-07-23T04:13:12;95012.59;;;27.29;38.07
35676;BME280;21790;42.668;23.298;2022-07-23T04:15:38;95025.44;;;27.23;38.33
35676;BME280;21790;42.668;23.298;2022-07-23T04:18:04;95023.94;;;27.29;38.36
35676;BME280;21790;42.668;23.298;2022-07-23T04:20:29;95018.47;;;27.31;38.30
35676;BME280;21790;42.668;23.298;2022-07-23T04:22:55;95025.09;;;27.41;38.25
35676;BME280;21790;42.668;23.298;2022-07-23T04:25:20;95024.91;;;27.47;37.96
35676;BME280;21790;42.668;23.298;2022-07-23T04:27:46;95027.03;;;27.54;38.34
35676;BME280;21790;42.668;23.298;2022-07-23T04:30:11;95033.47;;;27.62;37.75
35676;BME280;21790;42.668;23.298;2022-07-23T04:32:37;95029.13;;;27.76;37.34
35676;BME280;21790;42.668;23.298;2022-07-23T04:35:02;95040.28;;;27.89;37.29
35676;BME280;21790;42.668;23.298;2022-07-23T04:37:45;95034.81;;;28.14;36.88
35676;BME280;21790;42.668;23.298;2022-07-23T04:40:12;95023.81;;;27.96;37.19
35676;BME280;21790;42.668;23.298;2022-07-23T04:42:37;95029.50;;;28.03;37.50
35676;BME280;21790;42.668;23.298;2022-07-23T04:45:03;95028.34;;;28.29;37.24
35676;BME280;21790;42.668;23.298;2022-07-23T04:47:30;95036.81;;;28.52;37.32
35676;BME280;21790;42.668;23.298;2022-07-23T04:49:57;95032.59;;;28.60;37.54
35676;BME280;21790;42.668;23.298;2022-07-23T04:52:23;95042.47;;;28.75;37.31
35676;BME280;21790;42.668;23.298;2022-07-23T04:54:49;95039.75;;;28.84;36.89
35676;BME280;21790;42.668;23.298;2022-07-23T04:57:15;95042.09;;;29.10;36.29
35676;BME280;21790;42.668;23.298;2022-07-23T04:59:42;95043.53;;;29.27;35.54
35676;BME280;21790;42.668;23.298;2022-07-23T05:02:07;95050.84;;;29.13;35.55
35676;BME280;21790;42.668;23.298;2022-07-23T05:04:33;95048.78;;;28.98;36.25
35676;BME280;21790;42.668;23.298;2022-07-23T05:06:59;95047.03;;;29.10;35.60
35676;BME280;21790;42.668;23.298;2022-07-23T05:09:26;95041.44;;;29.27;35.42
35676;BME280;21790;42.668;23.298;2022-07-23T05:11:52;95040.28;;;29.38;35.33
35676;BME280;21790;42.668;23.298;2022-07-23T05:14:19;95040.38;;;29.47;34.92
35676;BME280;21790;42.668;23.298;2022-07-23T05:16:44;95047.69;;;29.66;34.63
35676;BME280;21790;42.668;23.298;2022-07-23T05:19:10;95045.41;;;29.89;34.40
35676;BME280;21790;42.668;23.298;2022-07-23T05:21:36;95051.59;;;30.03;34.17
35676;BME280;21790;42.668;23.298;2022-07-23T05:24:01;95057.22;;;30.10;34.13
35676;BME280;21790;42.668;23.298;2022-07-23T05:26:27;95050.16;;;30.11;33.76
35676;BME280;21790;42.668;23.298;2022-07-23T05:29:04;95048.88;;;30.29;33.91
35676;BME280;21790;42.668;23.298;2022-07-23T05:36:54;95045.06;;;30.52;33.24
35676;BME280;21790;42.668;23.298;2022-07-23T05:39:19;95050.00;;;30.51;33.15
35676;BME280;21790;42.668;23.298;2022-07-23T05:41:45;95053.31;;;30.40;33.45
35676;BME280;21790;42.668;23.298;2022-07-23T05:44:18;95050.84;;;30.61;33.08
35676;BME280;21790;42.668;23.298;2022-07-23T05:46:43;95049.75;;;30.57;33.50
35676;BME280;21790;42.668;23.298;2022-07-23T05:49:09;95044.16;;;30.49;33.60
35676;BME280;21790;42.668;23.298;2022-07-23T05:51:35;95052.78;;;30.59;33.49
35676;BME280;21790;42.668;23.298;2022-07-23T05:54:02;95045.06;;;30.69;33.47
35676;BME280;21790;42.668;23.298;2022-07-23T05:56:27;95048.94;;;30.64;33.44
35676;BME280;21790;42.668;23.298;2022-07-23T05:58:53;95051.34;;;30.85;32.69
35676;BME280;21790;42.668;23.298;2022-07-23T06:01:21;95049.50;;;30.97;32.70
35676;BME280;21790;42.668;23.298;2022-07-23T06:03:52;95052.63;;;31.08;33.00
35676;BME280;21790;42.668;23.298;2022-07-23T06:06:17;95040.13;;;31.04;33.01
35676;BME280;21790;42.668;23.298;2022-07-23T06:08:43;95040.00;;;31.11;32.33
35676;BME280;21790;42.668;23.298;2022-07-23T06:13:44;95040.00;;;31.11;31.91
35676;BME280;21790;42.668;23.298;2022-07-23T06:16:09;95039.56;;;31.15;31.84
35676;BME280;21790;42.668;23.298;2022-07-23T06:18:35;95043.28;;;31.25;31.91
35676;BME280;21790;42.668;23.298;2022-07-23T06:21:02;95034.03;;;31.44;32.04
35676;BME280;21790;42.668;23.298;2022-07-23T06:23:31;95040.16;;;31.58;31.60
35676;BME280;21790;42.668;23.298;2022-07-23T06:25:57;95041.47;;;31.56;30.77
35676;BME280;21790;42.668;23.298;2022-07-23T06:28:25;95036.50;;;31.74;30.33
35676;BME280;21790;42.668;23.298;2022-07-23T06:30:51;95039.94;;;31.73;30.95
35676;BME280;21790;42.668;23.298;2022-07-23T06:33:17;95045.66;;;31.73;30.88
35676;BME280;21790;42.668;23.298;2022-07-23T06:35:43;95037.38;;;31.77;31.10
35676;BME280;21790;42.668;23.298;2022-07-23T06:38:11;95040.75;;;31.92;30.23
35676;BME280;21790;42.668;23.298;2022-07-23T06:40:37;95043.66;;;32.02;30.29
35676;BME280;21790;42.668;23.298;2022-07-23T06:43:03;95040.06;;;32.02;28.69
35676;BME280;21790;42.668;23.298;2022-07-23T06:45:28;95037.81;;;32.10;29.24
35676;BME280;21790;42.668;23.298;2022-07-23T06:47:54;95038.00;;;32.21;29.46
35676;BME280;21790;42.668;23.298;2022-07-23T06:50:20;95033.66;;;32.30;30.62
35676;BME280;21790;42.668;23.298;2022-07-23T06:52:46;95032.94;;;32.39;30.76
35676;BME280;21790;42.668;23.298;2022-07-23T06:55:14;95034.28;;;32.38;30.43
35676;BME280;21790;42.668;23.298;2022-07-23T06:57:42;95030.69;;;32.47;29.87
35676;BME280;21790;42.668;23.298;2022-07-23T07:00:08;95033.69;;;32.49;29.80
35676;BME280;21790;42.668;23.298;2022-07-23T07:02:34;95028.44;;;32.55;29.51
35676;BME280;21790;42.668;23.298;2022-07-23T07:05:06;95029.97;;;32.66;30.13
35676;BME280;21790;42.668;23.298;2022-07-23T07:07:31;95033.13;;;32.70;30.51
35676;BME280;21790;42.668;23.298;2022-07-23T07:09:58;95033.13;;;32.70;30.44
35676;BME280;21790;42.668;23.298;2022-07-23T07:12:26;95028.13;;;32.51;30.79
35676;BME280;21790;42.668;23.298;2022-07-23T07:14:52;95028.72;;;32.50;30.48
35676;BME280;21790;42.668;23.298;2022-07-23T07:17:18;95026.53;;;32.67;30.77
35676;BME280;21790;42.668;23.298;2022-07-23T07:19:44;95021.38;;;32.75;30.61
35676;BME280;21790;42.668;23.298;2022-07-23T07:22:10;95014.31;;;32.86;29.89
35676;BME280;21790;42.668;23.298;2022-07-23T07:24:38;95021.97;;;33.03;30.94
35676;BME280;21790;42.668;23.298;2022-07-23T07:27:04;95017.91;;;33.06;29.83
35676;BME280;21790;42.668;23.298;2022-07-23T07:29:29;95016.38;;;33.14;29.46
35676;BME280;21790;42.668;23.298;2022-07-23T07:31:55;95011.41;;;33.25;29.75
35676;BME280;21790;42.668;23.298;2022-07-23T07:34:21;95004.34;;;33.26;29.30
35676;BME280;21790;42.668;23.298;2022-07-23T07:36:47;95007.75;;;33.43;29.51
35676;BME280;21790;42.668;23.298;2022-07-23T07:39:13;95008.47;;;33.53;29.33
35676;BME280;21790;42.668;23.298;2022-07-23T07:41:39;95007.53;;;33.60;28.81
35676;BME280;21790;42.668;23.298;2022-07-23T07:44:05;95010.88;;;33.57;28.29
35676;BME280;21790;42.668;23.298;2022-07-23T07:46:30;95011.47;;;33.55;28.67
35676;BME280;21790;42.668;23.298;2022-07-23T07:48:56;95011.94;;;33.71;28.82
35676;BME280;21790;42.668;23.298;2022-07-23T07:51:24;95008.53;;;33.84;29.01
35676;BME280;21790;42.668;23.298;2022-07-23T07:53:49;95006.47;;;33.66;28.95
35676;BME280;21790;42.668;23.298;2022-07-23T07:56:15;95002.09;;;33.65;28.66
35676;BME280;21790;42.668;23.298;2022-07-23T07:58:42;95009.06;;;34.02;28.38
35676;BME280;21790;42.668;23.298;2022-07-23T08:01:08;95003.50;;;33.94;28.16
35676;BME280;21790;42.668;23.298;2022-07-23T08:03:33;95001.25;;;33.93;27.76
35676;BME280;21790;42.668;23.298;2022-07-23T08:05:59;95003.59;;;34.06;28.58
35676;BME280;21790;42.668;23.298;2022-07-23T08:08:24;94996.28;;;34.24;28.34
35676;BME280;21790;42.668;23.298;2022-07-23T08:10:50;94997.56;;;34.33;28.38
35676;BME280;21790;42.668;23.298;2022-07-23T08:13:16;94993.41;;;34.46;27.99
35676;BME280;21790;42.668;23.298;2022-07-23T08:15:43;94992.66;;;34.45;28.16
35676;BME280;21790;42.668;23.298;2022-07-23T08:18:09;94998.19;;;34.53;27.64
35676;BME280;21790;42.668;23.298;2022-07-23T08:20:34;94997.97;;;34.60;27.43
35676;BME280;21790;42.668;23.298;2022-07-23T08:23:04;94993.00;;;34.61;27.18
35676;BME280;21790;42.668;23.298;2022-07-23T08:25:33;94980.75;;;34.60;27.75
35676;BME280;21790;42.668;23.298;2022-07-23T08:28:00;94990.97;;;34.73;26.89
35676;BME280;21790;42.668;23.298;2022-07-23T08:30:26;94985.38;;;34.75;26.68
35676;BME280;21790;42.668;23.298;2022-07-23T08:32:57;94974.66;;;34.87;26.12
35676;BME280;21790;42.668;23.298;2022-07-23T08:35:36;94980.22;;;35.06;26.11
35676;BME280;21790;42.668;23.298;2022-07-23T08:38:04;94984.25;;;35.13;26.11
35676;BME280;21790;42.668;23.298;2022-07-23T08:40:32;94978.28;;;35.20;25.91
35676;BME280;21790;42.668;23.298;2022-07-23T08:42:58;94981.38;;;35.13;26.52
35676;BME280;21790;42.668;23.298;2022-07-23T08:45:26;94977.06;;;35.23;26.61
35676;BME280;21790;42.668;23.298;2022-07-23T08:47:57;94974.34;;;35.37;26.54
35676;BME280;21790;42.668;23.298;2022-07-23T08:50:25;94982.34;;;35.39;26.19
35676;BME280;21790;42.668;23.298;2022-07-23T08:52:53;94976.63;;;35.62;26.03
35676;BME280;21790;42.668;23.298;2022-07-23T08:55:21;94972.66;;;35.67;25.13
35676;BME280;21790;42.668;23.298;2022-07-23T08:57:50;94967.16;;;35.71;25.33
35676;BME280;21790;42.668;23.298;2022-07-23T09:00:17;94962.91;;;35.84;25.81
35676;BME280;21790;42.668;23.298;2022-07-23T09:02:44;94968.53;;;35.93;25.73
35676;BME280;21790;42.668;23.298;2022-07-23T09:05:14;94970.13;;;36.08;25.58
35676;BME280;21790;42.668;23.298;2022-07-23T09:10:51;94971.91;;;36.25;25.03
35676;BME280;21790;42.668;23.298;2022-07-23T09:13:28;94959.59;;;36.47;24.96
35676;BME280;21790;42.668;23.298;2022-07-23T09:15:56;94956.41;;;36.55;24.89
35676;BME280;21790;42.668;23.298;2022-07-23T09:18:36;94953.34;;;36.39;23.94
35676;BME280;21790;42.668;23.298;2022-07-23T09:21:16;94967.13;;;36.29;24.91
35676;BME280;21790;42.668;23.298;2022-07-23T09:23:42;94962.09;;;36.41;24.76
35676;BME280;21790;42.668;23.298;2022-07-23T09:26:38;94963.84;;;36.46;23.85
35676;BME280;21790;42.668;23.298;2022-07-23T09:31:45;94960.84;;;36.44;23.98
35676;BME280;21790;42.668;23.298;2022-07-23T09:36:41;94941.38;;;36.31;23.65
35676;BME280;21790;42.668;23.298;2022-07-23T09:39:07;94947.13;;;36.31;23.54
35676;BME280;21790;42.668;23.298;2022-07-23T09:41:46;94948.34;;;36.40;23.88
35676;BME280;21790;42.668;23.298;2022-07-23T09:44:17;94945.72;;;36.44;23.48
35676;BME280;21790;42.668;23.298;2022-07-23T09:46:45;94933.34;;;36.30;22.49
35676;BME280;21790;42.668;23.298;2022-07-23T09:49:22;94925.97;;;36.38;22.71
35676;BME280;21790;42.668;23.298;2022-07-23T09:51:49;94937.88;;;36.33;22.65
35676;BME280;21790;42.668;23.298;2022-07-23T09:57:08;94940.16;;;36.60;21.50
35676;BME280;21790;42.668;23.298;2022-07-23T09:59:39;94933.31;;;36.41;20.76
35676;BME280;21790;42.668;23.298;2022-07-23T10:02:08;94930.50;;;36.55;20.77
35676;BME280;21790;42.668;23.298;2022-07-23T10:04:34;94925.50;;;36.56;20.97
35676;BME280;21790;42.668;23.298;2022-07-23T10:07:02;94927.41;;;36.63;21.61
35676;BME280;21790;42.668;23.298;2022-07-23T10:09:39;94920.47;;;36.68;22.28
35676;BME280;21790;42.668;23.298;2022-07-23T10:12:12;94920.00;;;36.60;21.47
35676;BME280;21790;42.668;23.298;2022-07-23T10:14:39;94914.75;;;36.56;21.65
35676;BME280;21790;42.668;23.298;2022-07-23T10:17:06;94912.00;;;36.58;21.55
35676;BME280;21790;42.668;23.298;2022-07-23T10:19:32;94918.59;;;36.72;21.32
35676;BME280;21790;42.668;23.298;2022-07-23T10:22:10;94910.63;;;36.84;21.61
35676;BME280;21790;42.668;23.298;2022-07-23T10:36:09;94897.28;;;37.03;20.37
35676;BME280;21790;42.668;23.298;2022-07-23T10:38:51;94904.53;;;37.04;19.98
35676;BME280;21790;42.668;23.298;2022-07-23T10:44:32;94892.31;;;37.17;19.92
35676;BME280;21790;42.668;23.298;2022-07-23T10:47:04;94890.47;;;37.10;20.05
35676;BME280;21790;42.668;23.298;2022-07-23T10:49:33;94890.66;;;37.25;18.39
35676;BME280;21790;42.668;23.298;2022-07-23T10:54:45;94881.41;;;37.15;17.85
35676;BME280;21790;42.668;23.298;2022-07-23T10:57:12;94879.28;;;37.16;17.85
35676;BME280;21790;42.668;23.298;2022-07-23T11:02:25;94866.16;;;37.13;17.21
35676;BME280;21790;42.668;23.298;2022-07-23T11:04:53;94864.84;;;37.02;17.19
35676;BME280;21790;42.668;23.298;2022-07-23T11:07:19;94871.72;;;37.09;17.37
35676;BME280;21790;42.668;23.298;2022-07-23T11:09:45;94860.97;;;36.98;18.36
35676;BME280;21790;42.668;23.298;2022-07-23T11:15:12;94858.53;;;37.31;16.41
35676;BME280;21790;42.668;23.298;2022-07-23T11:20:17;94853.19;;;37.39;17.65
35676;BME280;21790;42.668;23.298;2022-07-23T11:27:48;94850.66;;;37.59;17.87
35676;BME280;21790;42.668;23.298;2022-07-23T11:32:54;94843.16;;;37.54;18.19
35676;BME280;21790;42.668;23.298;2022-07-23T11:37:46;94838.13;;;37.54;17.32
35676;BME280;21790;42.668;23.298;2022-07-23T11:40:13;94831.19;;;37.32;16.28
35676;BME280;21790;42.668;23.298;2022-07-23T11:42:54;94832.72;;;37.60;16.30
35676;BME280;21790;42.668;23.298;2022-07-23T11:45:20;94823.31;;;37.46;16.49
35676;BME280;21790;42.668;23.298;2022-07-23T11:47:46;94820.31;;;37.44;16.81
35676;BME280;21790;42.668;23.298;2022-07-23T11:50:11;94833.34;;;37.59;16.67
35676;BME280;21790;42.668;23.298;2022-07-23T11:52:38;94822.38;;;37.69;16.72
35676;BME280;21790;42.668;23.298;2022-07-23T11:55:09;94813.41;;;37.63;16.72
35676;BME280;21790;42.668;23.298;2022-07-23T11:57:39;94819.91;;;37.63;16.06
35676;BME280;21790;42.668;23.298;2022-07-23T12:00:12;94815.59;;;37.37;16.35
35676;BME280;21790;42.668;23.298;2022-07-23T12:02:40;94816.16;;;37.47;15.55
35676;BME280;21790;42.668;23.298;2022-07-23T12:05:06;94822.66;;;37.48;15.18
35676;BME280;21790;42.668;23.298;2022-07-23T12:12:45;94819.78;;;37.48;14.75
35676;BME280;21790;42.668;23.298;2022-07-23T12:15:13;94814.66;;;37.46;15.20
35676;BME280;21790;42.668;23.298;2022-07-23T12:17:40;94806.75;;;37.47;15.44
35676;BME280;21790;42.668;23.298;2022-07-23T12:20:08;94811.34;;;37.52;13.98
35676;BME280;21790;42.668;23.298;2022-07-23T12:22:37;94797.75;;;37.54;13.91
35676;BME280;21790;42.668;23.298;2022-07-23T12:25:10;94807.50;;;37.61;14.08
35676;BME280;21790;42.668;23.298;2022-07-23T12:27:37;94802.19;;;37.55;14.54
35676;BME280;21790;42.668;23.298;2022-07-23T12:30:26;94804.44;;;37.57;14.23
35676;BME280;21790;42.668;23.298;2022-07-23T12:32:55;94788.78;;;37.48;14.09
35676;BME280;21790;42.668;23.298;2022-07-23T12:35:22;94785.69;;;37.44;14.26
35676;BME280;21790;42.668;23.298;2022-07-23T12:37:50;94783.03;;;37.35;13.72
35676;BME280;21790;42.668;23.298;2022-07-23T12:42:57;94785.50;;;37.40;14.23
35676;BME280;21790;42.668;23.298;2022-07-23T12:45:23;94775.88;;;37.49;14.30
35676;BME280;21790;42.668;23.298;2022-07-23T12:50:40;94778.78;;;37.36;14.08
35676;BME280;21790;42.668;23.298;2022-07-23T12:53:16;94772.06;;;37.31;13.90
35676;BME280;21790;42.668;23.298;2022-07-23T12:55:43;94763.09;;;37.25;14.50
35676;BME280;21790;42.668;23.298;2022-07-23T12:58:15;94769.47;;;37.37;14.64
35676;BME280;21790;42.668;23.298;2022-07-23T13:03:33;94769.47;;;37.37;14.04
35676;BME280;21790;42.668;23.298;2022-07-23T13:06:00;94769.91;;;37.32;14.42
35676;BME280;21790;42.668;23.298;2022-07-23T13:08:28;94763.94;;;37.41;14.14
35676;BME280;21790;42.668;23.298;2022-07-23T13:10:54;94763.09;;;37.25;13.65
35676;BME280;21790;42.668;23.298;2022-07-23T13:13:22;94768.88;;;37.00;13.37
35676;BME280;21790;42.668;23.298;2022-07-23T13:15:48;94758.59;;;37.22;13.72
35676;BME280;21790;42.668;23.298;2022-07-23T13:18:13;94759.81;;;37.05;13.47
35676;BME280;21790;42.668;23.298;2022-07-23T13:20:39;94760.19;;;37.11;13.14
35676;BME280;21790;42.668;23.298;2022-07-23T13:23:06;94759.13;;;37.18;12.96
35676;BME280;21790;42.668;23.298;2022-07-23T13:25:31;94766.06;;;37.13;12.61
35676;BME280;21790;42.668;23.298;2022-07-23T13:27:57;94755.81;;;37.24;13.21
35676;BME280;21790;42.668;23.298;2022-07-23T13:30:22;94750.25;;;37.28;13.69
35676;BME280;21790;42.668;23.298;2022-07-23T13:32:48;94748.75;;;37.27;14.49
35676;BME280;21790;42.668;23.298;2022-07-23T13:35:14;94752.81;;;37.22;15.06
35676;BME280;21790;42.668;23.298;2022-07-23T13:37:40;94749.41;;;37.12;15.16
35676;BME280;21790;42.668;23.298;2022-07-23T13:40:06;94745.41;;;37.05;13.50
35676;BME280;21790;42.668;23.298;2022-07-23T13:42:32;94748.69;;;37.25;13.36
35676;BME280;21790;42.668;23.298;2022-07-23T13:44:57;94751.56;;;37.25;13.67
35676;BME280;21790;42.668;23.298;2022-07-23T13:47:22;94745.88;;;37.27;13.52
35676;BME280;21790;42.668;23.298;2022-07-23T13:49:48;94731.59;;;37.29;13.03
35676;BME280;21790;42.668;23.298;2022-07-23T13:52:14;94732.75;;;37.38;13.17
35676;BME280;21790;42.668;23.298;2022-07-23T13:54:39;94728.06;;;37.31;13.21
35676;BME280;21790;42.668;23.298;2022-07-23T13:57:05;94732.97;;;37.42;12.92
35676;BME280;21790;42.668;23.298;2022-07-23T13:59:30;94742.38;;;37.42;12.98
35676;BME280;21790;42.668;23.298;2022-07-23T14:01:56;94734.38;;;37.41;13.03